Terminal Aerodrome Forecast
Issued by NWS

Home | Current Version | Previous Version | Text Only | Print | Product List | Glossary On
Versions: 1 2 3 4 5 6 7 8 9 10 11 12 13
000
FTUS41 KBTV 230900 AAA
TAFRUT
TAF AMD
KRUT 230958Z 2310/2406 28009KT P6SM VCSH OVC018
      TEMPO 2310/2314 OVC020
     FM231400 31009G18KT P6SM VCSH OVC020
     FM240000 31006KT P6SM VCSH OVC035
      AMD LTD TO CLD VIS AND WIND=

USA.gov is the U.S. government's official web portal to all federal, state and local government web resources and services.